Time;durP1;ratioP1;P1;durP2;ratioP2;P2;SDS_P1;SDS_P2;PMS_P1;PMS_P2;Temp;Humidity;BMP_temperature;BMP_pressure;BME280_temperature;BME280_humidity;BME280_pressure;Samples;Min_cycle;Max_cycle;Signal;HPM_P1;HPM_P2
2022/09/20 00:01:11;;;;;;;6.50;3.33;;;14.10;99.90;;;;;;5014833;28;20754;-68
2022/09/20 00:03:39;;;;;;;5.17;3.50;;;14.10;99.90;;;;;;5015778;28;20227;-67
2022/09/20 00:06:08;;;;;;;4.60;3.20;;;14.10;99.90;;;;;;5014530;28;20420;-68
2022/09/20 00:08:34;;;;;;;4.50;3.87;;;14.10;99.90;;;;;;5015580;28;20417;-68
2022/09/20 00:11:05;;;;;;;6.00;3.90;;;14.10;99.90;;;;;;5014838;28;20455;-68
2022/09/20 00:13:32;;;;;;;8.80;3.87;;;14.10;99.90;;;;;;4998190;28;20829;-68
2022/09/20 00:15:58;;;;;;;5.80;3.70;;;14.20;99.90;;;;;;5013874;28;20431;-68
2022/09/20 00:18:24;;;;;;;8.17;3.60;;;14.10;99.90;;;;;;5015415;28;20409;-68
2022/09/20 00:20:50;;;;;;;5.17;3.80;;;14.10;99.90;;;;;;5014485;28;20794;-69
2022/09/20 00:23:17;;;;;;;4.50;3.97;;;14.10;99.90;;;;;;5015324;28;20503;-68
2022/09/20 00:25:43;;;;;;;8.30;4.80;;;14.10;99.90;;;;;;5015384;28;20421;-68
2022/09/20 00:28:10;;;;;;;6.33;3.77;;;14.10;99.90;;;;;;5014594;28;20418;-68
2022/09/20 00:30:36;;;;;;;3.73;3.10;;;14.10;99.90;;;;;;5015079;28;20452;-67
2022/09/20 00:33:04;;;;;;;7.07;4.30;;;14.10;99.90;;;;;;5014526;28;20495;-68
2022/09/20 00:35:30;;;;;;;4.33;3.93;;;14.20;99.90;;;;;;5014959;28;20468;-68
2022/09/20 00:37:56;;;;;;;4.77;4.10;;;14.20;99.90;;;;;;5014557;28;20416;-68
2022/09/20 00:40:23;;;;;;;8.00;3.90;;;14.20;99.90;;;;;;5011975;28;20428;-68
2022/09/20 00:42:49;;;;;;;8.07;4.93;;;14.20;99.90;;;;;;5001157;28;20938;-68
2022/09/20 00:45:30;;;;;;;10.13;4.50;;;14.20;99.90;;;;;;4994992;28;20414;-68
2022/09/20 00:48:04;;;;;;;5.47;4.40;;;14.20;99.90;;;;;;4995031;28;20270;-68
2022/09/20 00:50:38;;;;;;;6.17;4.50;;;14.20;99.90;;;;;;4994933;28;20943;-68
2022/09/20 00:53:30;;;;;;;8.57;4.67;;;14.30;99.90;;;;;;4994378;28;20415;-68
2022/09/20 00:56:00;;;;;;;6.97;4.80;;;14.20;99.90;;;;;;4994584;28;20410;-68
2022/09/20 00:58:28;;;;;;;7.10;4.70;;;14.20;99.90;;;;;;4995100;28;20476;-68
2022/09/20 01:00:56;;;;;;;6.93;4.13;;;14.10;99.90;;;;;;4994477;28;20480;-68
2022/09/20 01:03:26;;;;;;;5.40;4.43;;;14.10;99.90;;;;;;4995263;28;20457;-68
2022/09/20 01:05:53;;;;;;;10.63;4.67;;;14.20;99.90;;;;;;4994562;28;20899;-74
2022/09/20 01:08:23;;;;;;;7.23;4.93;;;14.30;99.90;;;;;;4997157;28;20464;-69
2022/09/20 01:10:49;;;;;;;8.60;4.90;;;14.20;99.90;;;;;;4994709;28;20516;-68
2022/09/20 01:13:15;;;;;;;8.97;4.00;;;14.20;99.90;;;;;;4994203;28;20414;-68
2022/09/20 01:15:43;;;;;;;8.83;5.60;;;14.20;99.90;;;;;;4994725;28;20411;-68
2022/09/20 01:18:12;;;;;;;7.00;4.40;;;14.20;99.90;;;;;;4994395;28;20242;-68
2022/09/20 01:20:41;;;;;;;5.97;4.47;;;14.20;99.90;;;;;;4994656;28;20410;-68
2022/09/20 01:23:18;;;;;;;6.17;4.70;;;14.20;99.90;;;;;;4994064;28;20464;-68
2022/09/20 01:26:00;;;;;;;7.30;4.60;;;14.20;99.90;;;;;;4994378;28;20449;-68
2022/09/20 01:28:28;;;;;;;6.50;4.93;;;14.20;99.90;;;;;;4994546;28;20426;-68
2022/09/20 01:31:22;;;;;;;7.30;4.77;;;14.20;99.90;;;;;;4993838;28;20460;-71
2022/09/20 01:33:57;;;;;;;5.90;4.50;;;14.10;99.90;;;;;;4994410;28;20491;-68
2022/09/20 01:36:24;;;;;;;7.60;5.33;;;14.10;99.90;;;;;;5005163;28;20488;-68
2022/09/20 01:39:09;;;;;;;5.73;5.23;;;14.10;99.90;;;;;;4996259;28;20436;-68
2022/09/20 01:41:44;;;;;;;11.83;5.27;;;14.10;99.90;;;;;;4994352;28;20468;-68
2022/09/20 01:44:34;;;;;;;8.13;4.30;;;14.10;99.90;;;;;;4993650;28;20422;-68
2022/09/20 01:47:25;;;;;;;8.37;4.80;;;14.10;99.90;;;;;;4993597;28;20425;-68
2022/09/20 01:50:18;;;;;;;7.10;5.30;;;14.00;99.90;;;;;;4950503;28;20466;-68
2022/09/20 01:53:05;;;;;;;8.77;5.67;;;14.10;99.90;;;;;;4994173;28;20403;-67
2022/09/20 01:55:34;;;;;;;5.03;4.53;;;14.10;99.90;;;;;;4993875;28;20445;-68
2022/09/20 01:58:29;;;;;;;8.53;5.20;;;14.10;99.90;;;;;;4993360;28;20419;-68
2022/09/20 02:01:19;;;;;;;7.90;5.80;;;14.10;99.90;;;;;;4992784;28;20485;-73
2022/09/20 02:03:47;;;;;;;8.60;4.90;;;14.10;99.90;;;;;;4992935;28;20965;-69
2022/09/20 02:06:13;;;;;;;6.17;5.57;;;14.10;99.90;;;;;;5010822;28;20440;-68
2022/09/20 02:08:55;;;;;;;7.03;5.27;;;14.00;99.90;;;;;;5012911;28;20444;-68
2022/09/20 02:11:34;;;;;;;7.63;5.40;;;14.00;99.90;;;;;;5013439;28;20198;-68
2022/09/20 02:14:29;;;;;;;7.47;5.30;;;14.00;99.90;;;;;;5012782;28;20402;-67
2022/09/20 02:17:01;;;;;;;10.70;5.50;;;14.00;99.90;;;;;;5013430;28;20464;-69
2022/09/20 02:19:34;;;;;;;6.00;5.20;;;14.00;99.90;;;;;;5013507;28;20400;-68
2022/09/20 02:22:16;;;;;;;5.60;4.93;;;13.90;99.90;;;;;;5012730;28;20459;-68
2022/09/20 02:25:04;;;;;;;8.37;5.83;;;13.90;99.90;;;;;;5012960;28;20408;-68
2022/09/20 02:27:42;;;;;;;8.93;5.47;;;13.90;99.90;;;;;;4995751;28;20473;-69
2022/09/20 02:30:41;;;;;;;8.40;4.50;;;13.90;99.90;;;;;;5012472;28;20491;-68
2022/09/20 02:33:27;;;;;;;5.83;5.33;;;13.90;99.90;;;;;;4994991;28;20455;-68
2022/09/20 02:36:06;;;;;;;6.40;5.83;;;13.80;99.90;;;;;;5011534;28;20507;-68
2022/09/20 02:38:58;;;;;;;5.13;4.63;;;13.80;99.90;;;;;;5012991;28;20479;-67
2022/09/20 02:41:30;;;;;;;5.80;5.23;;;13.80;99.90;;;;;;5012915;28;20475;-67
2022/09/20 02:44:33;;;;;;;6.00;5.13;;;13.80;99.90;;;;;;5012932;28;20409;-68
2022/09/20 02:47:33;;;;;;;5.53;4.97;;;13.80;99.90;;;;;;5012345;28;20401;-69
2022/09/20 02:50:33;;;;;;;5.53;4.80;;;13.80;99.90;;;;;;4959927;28;20567;-68
2022/09/20 02:53:17;;;;;;;6.30;5.07;;;13.80;99.90;;;;;;5012650;28;20388;-75
2022/09/20 02:55:59;;;;;;;5.30;4.80;;;13.80;99.90;;;;;;4995315;28;20961;-68
2022/09/20 02:58:53;;;;;;;5.10;4.70;;;13.70;99.90;;;;;;5012942;28;20455;-68
2022/09/20 03:01:43;;;;;;;6.00;5.50;;;13.70;99.90;;;;;;5012204;28;20461;-68
2022/09/20 03:04:22;;;;;;;9.87;4.97;;;13.70;99.90;;;;;;5011292;28;20417;-67
2022/09/20 03:07:04;;;;;;;6.23;5.57;;;13.60;99.90;;;;;;5012753;28;20471;-68
2022/09/20 03:09:30;;;;;;;7.90;4.83;;;13.60;99.90;;;;;;5012755;28;20400;-67
2022/09/20 03:12:16;;;;;;;6.13;4.97;;;13.60;99.90;;;;;;5012679;28;20474;-68
2022/09/20 03:15:12;;;;;;;8.33;5.50;;;13.70;99.90;;;;;;5011794;28;20547;-67
2022/09/20 03:18:05;;;;;;;6.80;4.77;;;13.60;99.90;;;;;;5014978;28;20486;-68
2022/09/20 03:20:42;;;;;;;6.27;5.40;;;13.60;99.90;;;;;;5016557;28;20412;-68
2022/09/20 03:23:27;;;;;;;5.63;5.07;;;13.60;99.90;;;;;;5015566;28;20907;-68
2022/09/20 03:26:16;;;;;;;4.90;4.60;;;13.60;99.90;;;;;;5016552;28;20883;-68
2022/09/20 03:29:02;;;;;;;6.30;5.47;;;13.50;99.90;;;;;;5015553;28;20436;-67
2022/09/20 03:31:34;;;;;;;5.87;5.33;;;13.50;99.90;;;;;;5016398;28;20464;-67
2022/09/20 03:34:32;;;;;;;6.40;5.27;;;13.50;99.90;;;;;;5015057;28;20411;-67
2022/09/20 03:37:35;;;;;;;7.00;5.87;;;13.40;99.90;;;;;;5016305;28;20472;-68
2022/09/20 03:40:16;;;;;;;10.30;7.30;;;13.40;99.90;;;;;;4928648;28;20816;-74
2022/09/20 03:42:51;;;;;;;6.60;5.33;;;13.30;99.90;;;;;;5016199;28;20405;-67
2022/09/20 03:45:26;;;;;;;5.43;4.70;;;13.30;99.90;;;;;;4964575;28;20412;-67
2022/09/20 03:47:57;;;;;;;7.23;6.60;;;13.30;99.90;;;;;;5015685;28;20519;-67
2022/09/20 03:50:59;;;;;;;5.97;4.73;;;13.20;99.90;;;;;;5015256;28;20493;-67
2022/09/20 03:53:57;;;;;;;6.37;5.03;;;13.20;99.90;;;;;;5015321;28;20407;-67
2022/09/20 03:57:02;;;;;;;6.37;5.83;;;13.10;99.90;;;;;;5015279;28;20467;-67
2022/09/20 03:59:46;;;;;;;6.53;5.93;;;13.10;99.90;;;;;;4988094;28;20454;-67
2022/09/20 04:02:42;;;;;;;8.90;6.37;;;13.10;99.90;;;;;;4997886;28;20433;-68
2022/09/20 04:05:45;;;;;;;7.23;4.37;;;13.00;99.90;;;;;;5013280;28;20833;-68
2022/09/20 04:08:32;;;;;;;8.23;5.00;;;13.00;99.90;;;;;;5015053;28;20918;-68
2022/09/20 04:11:27;;;;;;;9.30;6.30;;;13.10;99.90;;;;;;5015658;28;20449;-67
2022/09/20 04:14:08;;;;;;;7.70;5.90;;;13.00;99.90;;;;;;5014730;28;20965;-67
2022/09/20 04:17:01;;;;;;;7.90;5.10;;;13.00;99.90;;;;;;5015315;28;20405;-67
2022/09/20 04:19:59;;;;;;;7.10;6.43;;;13.00;99.90;;;;;;5014797;28;20414;-67
2022/09/20 04:22:28;;;;;;;7.80;5.33;;;13.00;99.90;;;;;;4993245;28;20453;-67
2022/09/20 04:24:59;;;;;;;5.23;4.20;;;13.00;99.90;;;;;;5015281;28;20464;-67
2022/09/20 04:27:33;;;;;;;7.20;6.60;;;13.10;99.90;;;;;;5014115;28;20405;-67
2022/09/20 04:30:06;;;;;;;6.57;5.97;;;12.90;99.90;;;;;;5015303;28;20476;-67
2022/09/20 04:32:39;;;;;;;6.63;4.77;;;12.90;99.90;;;;;;5015110;28;20406;-67
2022/09/20 04:38:21;;;;;;;5.80;4.40;;;12.80;99.90;;;;;;5014465;28;20417;-68
2022/09/20 04:40:53;;;;;;;7.60;4.60;;;12.80;99.90;;;;;;5014926;28;20457;-67
2022/09/20 04:43:22;;;;;;;6.23;4.60;;;12.70;99.90;;;;;;5014152;28;20406;-67
2022/09/20 04:45:57;;;;;;;6.03;4.60;;;12.70;99.90;;;;;;5014904;28;20512;-67
2022/09/20 04:48:41;;;;;;;5.33;4.70;;;12.70;99.90;;;;;;5014289;28;20425;-67
2022/09/20 04:51:57;;;;;;;5.80;4.93;;;12.60;99.90;;;;;;5014241;28;20492;-68
2022/09/20 04:54:24;;;;;;;9.30;5.40;;;12.60;99.90;;;;;;4972953;28;20439;-67
2022/09/20 04:57:22;;;;;;;8.37;7.57;;;12.60;99.90;;;;;;5014653;28;20414;-67
2022/09/20 05:00:10;;;;;;;7.53;5.93;;;12.60;99.90;;;;;;5014881;28;20407;-67
2022/09/20 05:03:00;;;;;;;7.40;6.70;;;12.60;99.90;;;;;;5014955;28;20417;-67
2022/09/20 05:05:49;;;;;;;7.63;5.70;;;12.60;99.90;;;;;;5013165;28;21147;-67
2022/09/20 05:09:12;;;;;;;11.00;6.90;;;12.60;99.90;;;;;;5014032;28;20747;-67
2022/09/20 05:11:51;;;;;;;9.13;7.90;;;12.70;99.90;;;;;;4977769;28;20527;-68
2022/09/20 05:14:21;;;;;;;10.53;7.20;;;12.70;99.90;;;;;;5013853;28;20412;-67
2022/09/20 05:17:11;;;;;;;8.77;7.87;;;12.80;99.90;;;;;;5014375;28;20428;-67
2022/09/20 05:20:07;;;;;;;10.30;8.40;;;12.90;99.90;;;;;;5014353;28;20414;-67
2022/09/20 05:22:45;;;;;;;8.60;7.37;;;12.90;99.90;;;;;;5014622;28;20403;-67
2022/09/20 05:25:53;;;;;;;10.77;7.93;;;13.00;99.90;;;;;;5013405;28;20431;-68
2022/09/20 05:28:34;;;;;;;8.03;7.20;;;13.00;99.90;;;;;;4980961;28;20439;-67
2022/09/20 05:31:29;;;;;;;11.10;7.83;;;13.10;99.90;;;;;;5014384;28;20812;-67
2022/09/20 05:34:09;;;;;;;10.93;9.80;;;13.20;99.90;;;;;;5010544;28;20435;-68
2022/09/20 05:36:58;;;;;;;7.80;7.00;;;13.20;99.90;;;;;;4994550;28;20471;-67
2022/09/20 05:39:32;;;;;;;10.67;9.70;;;13.30;99.90;;;;;;4981113;28;20442;-67
2022/09/20 05:42:14;;;;;;;7.30;6.60;;;13.30;99.90;;;;;;4994307;28;20431;-68
2022/09/20 05:45:31;;;;;;;7.60;6.73;;;13.30;99.90;;;;;;4994549;28;20449;-67
2022/09/20 05:48:10;;;;;;;14.10;8.50;;;13.30;99.90;;;;;;4994309;28;20400;-67
2022/09/20 05:51:21;;;;;;;10.37;8.67;;;13.40;99.90;;;;;;4994208;28;20460;-68
2022/09/20 05:54:01;;;;;;;14.10;11.30;;;13.40;99.90;;;;;;4963737;28;20463;-67
2022/09/20 05:56:30;;;;;;;11.30;9.93;;;13.40;99.90;;;;;;4993632;28;20516;-67
2022/09/20 05:59:21;;;;;;;14.03;9.00;;;13.50;99.90;;;;;;4993889;28;20423;-68
2022/09/20 06:02:24;;;;;;;13.07;10.17;;;13.50;99.90;;;;;;4993853;28;20758;-67
2022/09/20 06:05:16;;;;;;;11.53;8.43;;;13.50;99.90;;;;;;4985641;28;21051;-68
2022/09/20 06:08:09;;;;;;;14.00;11.40;;;13.50;99.90;;;;;;4976645;28;20766;-67
2022/09/20 06:10:49;;;;;;;11.37;10.17;;;13.60;99.90;;;;;;4997481;28;20966;-67
2022/09/20 06:13:39;;;;;;;12.03;8.80;;;13.60;99.90;;;;;;5012778;28;20421;-68
2022/09/20 06:16:08;;;;;;;12.83;8.60;;;13.60;99.90;;;;;;5006003;28;20418;-68
2022/09/20 06:19:03;;;;;;;10.63;9.47;;;13.70;99.90;;;;;;5001292;28;20422;-68
2022/09/20 06:21:46;;;;;;;16.93;9.40;;;13.70;99.90;;;;;;5004133;28;20425;-68
2022/09/20 06:24:38;;;;;;;12.03;8.70;;;13.80;99.90;;;;;;5001433;28;20420;-69
2022/09/20 06:27:10;;;;;;;9.67;8.50;;;13.80;99.90;;;;;;5000347;28;20486;-68
2022/09/20 06:29:39;;;;;;;11.00;9.73;;;13.90;99.90;;;;;;5007019;28;20415;-68
2022/09/20 06:32:05;;;;;;;10.20;8.20;;;13.90;99.90;;;;;;5002414;28;20436;-69
2022/09/20 06:34:31;;;;;;;10.03;8.97;;;13.90;99.90;;;;;;5006232;28;20778;-68
2022/09/20 06:42:44;;;;;;;11.17;10.17;;;14.00;99.90;;;;;;5013040;28;20405;-68
2022/09/20 06:45:10;;;;;;;11.20;10.10;;;14.00;99.90;;;;;;5012704;28;20900;-68
2022/09/20 06:47:36;;;;;;;12.10;9.87;;;14.10;99.90;;;;;;5012271;28;20174;-68
2022/09/20 06:50:02;;;;;;;10.53;8.30;;;14.10;99.90;;;;;;5012476;28;20219;-70
2022/09/20 06:52:27;;;;;;;11.10;8.00;;;14.20;99.90;;;;;;5012205;28;20195;-66
2022/09/20 06:54:55;;;;;;;16.03;8.60;;;14.20;99.90;;;;;;5011687;28;20177;-66
2022/09/20 06:57:31;;;;;;;14.03;9.97;;;14.30;99.90;;;;;;5012121;28;20892;-66
2022/09/20 06:59:57;;;;;;;9.93;7.70;;;14.30;99.90;;;;;;5012568;28;20416;-65
2022/09/20 07:02:23;;;;;;;11.23;7.70;;;14.40;99.90;;;;;;5012243;28;20429;-65
2022/09/20 07:04:54;;;;;;;12.80;8.30;;;14.40;99.90;;;;;;5012661;28;20220;-65
2022/09/20 07:07:20;;;;;;;11.93;8.40;;;14.40;99.90;;;;;;5012161;28;20171;-66
2022/09/20 07:09:46;;;;;;;10.10;7.33;;;14.40;99.90;;;;;;4961858;28;20471;-65
2022/09/20 07:12:12;;;;;;;12.07;8.73;;;14.40;99.90;;;;;;5012585;28;20954;-65
2022/09/20 07:14:38;;;;;;;9.57;8.67;;;14.50;99.90;;;;;;5012285;28;20512;-65
2022/09/20 07:17:05;;;;;;;8.50;7.60;;;14.50;99.90;;;;;;4994963;28;20417;-65
2022/09/20 07:19:31;;;;;;;13.30;8.20;;;14.40;99.90;;;;;;5011918;28;20424;-65
2022/09/20 07:21:56;;;;;;;8.47;7.60;;;14.50;99.90;;;;;;5012583;28;20882;-65
2022/09/20 07:24:22;;;;;;;12.60;9.57;;;14.40;99.90;;;;;;5011981;28;20178;-65
2022/09/20 07:26:56;;;;;;;7.00;6.40;;;14.50;99.90;;;;;;5011512;28;20215;-65
2022/09/20 07:29:21;;;;;;;12.57;9.93;;;14.50;99.90;;;;;;5011941;28;20209;-65
2022/09/20 07:31:49;;;;;;;9.47;6.40;;;14.50;99.90;;;;;;5011581;28;20956;-65
2022/09/20 07:34:19;;;;;;;8.13;7.10;;;14.50;99.90;;;;;;5012080;28;20541;-72
2022/09/20 07:36:49;;;;;;;7.13;6.43;;;14.50;99.90;;;;;;5012281;28;20598;-68
2022/09/20 07:39:15;;;;;;;12.03;8.30;;;14.50;99.90;;;;;;5012379;28;20497;-70
2022/09/20 07:41:47;;;;;;;15.43;8.70;;;15.20;99.90;;;;;;4994886;28;20419;-69
2022/09/20 07:44:20;;;;;;;10.90;6.23;;;15.80;99.90;;;;;;5012428;28;20449;-70
2022/09/20 07:46:49;;;;;;;11.83;10.40;;;16.40;99.90;;;;;;5011418;28;20421;-67
2022/09/20 07:49:15;;;;;;;11.43;9.20;;;17.00;99.90;;;;;;5012321;28;20428;-68
2022/09/20 07:51:41;;;;;;;11.30;10.07;;;17.30;99.90;;;;;;5011920;28;20465;-68
2022/09/20 07:54:07;;;;;;;8.60;7.63;;;17.50;99.90;;;;;;5012261;28;20449;-68
2022/09/20 07:56:32;;;;;;;6.80;6.20;;;17.70;99.50;;;;;;5011695;28;20496;-68
2022/09/20 07:58:58;;;;;;;6.40;5.90;;;17.90;98.70;;;;;;5012233;28;20179;-67
2022/09/20 08:01:24;;;;;;;25.23;17.27;;;18.10;98.30;;;;;;5001236;28;20225;-68
2022/09/20 08:03:50;;;;;;;14.13;11.60;;;18.10;98.10;;;;;;5003221;28;20229;-68
2022/09/20 08:06:17;;;;;;;6.30;5.67;;;18.00;98.20;;;;;;5006423;28;20219;-68
2022/09/20 08:08:44;;;;;;;10.43;9.20;;;17.90;98.10;;;;;;5003043;28;20431;-67
2022/09/20 08:11:16;;;;;;;7.10;6.60;;;17.90;98.20;;;;;;5003584;28;20457;-68
2022/09/20 08:13:45;;;;;;;11.03;10.00;;;18.00;98.30;;;;;;5008067;28;20740;-68
2022/09/20 08:16:14;;;;;;;8.77;7.77;;;18.10;98.20;;;;;;5006642;28;20422;-68
2022/09/20 08:18:55;;;;;;;11.50;10.50;;;17.90;98.20;;;;;;5006185;28;20410;-68
2022/09/20 08:21:23;;;;;;;12.40;9.37;;;17.90;98.40;;;;;;4991651;28;20902;-68
2022/09/20 08:23:49;;;;;;;7.27;6.47;;;18.00;98.40;;;;;;5006865;28;20437;-68
2022/09/20 08:26:20;;;;;;;9.17;8.37;;;18.10;98.60;;;;;;5004423;28;20423;-68
2022/09/20 08:28:51;;;;;;;12.03;7.57;;;18.30;99.20;;;;;;5007093;28;20407;-68
2022/09/20 08:31:18;;;;;;;10.10;8.80;;;18.20;98.30;;;;;;5003603;28;20458;-68
2022/09/20 08:33:45;;;;;;;9.13;8.30;;;18.20;98.30;;;;;;5005207;28;20415;-68
2022/09/20 08:36:13;;;;;;;4.80;4.27;;;18.30;98.30;;;;;;5004934;28;20544;-68
2022/09/20 08:38:39;;;;;;;8.37;5.57;;;18.30;98.40;;;;;;5004657;28;20445;-68
2022/09/20 08:41:24;;;;;;;7.77;7.00;;;18.30;98.10;;;;;;5005710;28;20420;-68
2022/09/20 08:43:58;;;;;;;6.43;5.80;;;18.40;98.40;;;;;;5003147;28;20525;-68
2022/09/20 08:46:28;;;;;;;7.07;6.40;;;18.40;98.40;;;;;;5005861;28;20483;-68
2022/09/20 08:48:57;;;;;;;6.70;4.90;;;18.50;98.00;;;;;;5004055;28;20886;-68
2022/09/20 08:51:29;;;;;;;5.37;4.83;;;18.50;97.90;;;;;;5003074;28;20447;-69
2022/09/20 08:53:56;;;;;;;8.00;7.20;;;18.60;98.30;;;;;;5004219;28;20480;-68
2022/09/20 08:56:30;;;;;;;5.53;5.17;;;18.60;98.60;;;;;;5004497;28;20427;-68
2022/09/20 08:58:58;;;;;;;8.70;7.30;;;18.60;98.60;;;;;;5005014;28;20793;-69
2022/09/20 09:01:25;;;;;;;6.90;4.63;;;18.50;99.10;;;;;;5003187;28;20422;-69
2022/09/20 09:04:00;;;;;;;6.40;3.97;;;18.50;98.80;;;;;;5006052;28;20771;-68
2022/09/20 09:06:26;;;;;;;9.83;6.50;;;18.50;98.50;;;;;;5006811;28;20417;-68
2022/09/20 09:08:56;;;;;;;9.37;8.37;;;18.50;98.40;;;;;;5004830;28;20406;-68
2022/09/20 09:11:22;;;;;;;9.53;7.20;;;18.50;98.60;;;;;;5004406;28;20199;-68
2022/09/20 09:13:52;;;;;;;5.13;4.63;;;18.50;98.20;;;;;;5002352;28;20422;-68
2022/09/20 09:16:20;;;;;;;8.07;7.03;;;18.60;98.40;;;;;;5005072;28;20190;-69
2022/09/20 09:18:48;;;;;;;16.43;11.73;;;18.60;98.10;;;;;;5005091;28;20422;-68
2022/09/20 09:21:23;;;;;;;13.13;9.30;;;18.60;97.90;;;;;;5005121;28;20815;-68
2022/09/20 09:24:11;;;;;;;10.60;7.90;;;18.60;97.90;;;;;;5001748;28;20471;-68
2022/09/20 09:26:39;;;;;;;14.03;10.57;;;18.60;98.10;;;;;;5005804;28;20444;-69
2022/09/20 09:29:22;;;;;;;13.00;10.30;;;18.60;98.00;;;;;;5003901;28;20417;-67
2022/09/20 09:31:51;;;;;;;13.10;10.23;;;18.60;98.20;;;;;;4986163;28;20970;-67
2022/09/20 09:34:28;;;;;;;12.20;10.23;;;18.70;98.00;;;;;;5002298;28;20429;-68
2022/09/20 09:36:55;;;;;;;11.93;8.70;;;18.90;98.00;;;;;;5001468;28;20437;-68
2022/09/20 09:39:23;;;;;;;8.73;6.80;;;18.80;97.50;;;;;;5002583;28;20435;-68
2022/09/20 09:41:49;;;;;;;10.43;9.32;;;18.80;97.20;;;;;;5003188;28;20419;-68
2022/09/20 09:44:20;;;;;;;7.50;6.70;;;18.90;96.90;;;;;;5004450;28;20183;-67
2022/09/20 09:46:46;;;;;;;5.90;5.20;;;18.90;96.60;;;;;;5001448;28;20415;-68
2022/09/20 09:49:18;;;;;;;7.73;4.83;;;18.90;96.60;;;;;;5003950;28;20415;-68
2022/09/20 09:52:12;;;;;;;14.90;10.00;;;18.90;96.40;;;;;;5006261;28;20453;-68
2022/09/20 09:54:47;;;;;;;8.53;7.37;;;18.90;97.10;;;;;;5004701;28;20786;-68
2022/09/20 09:57:18;;;;;;;7.27;6.67;;;18.90;97.10;;;;;;5003978;28;20757;-68
2022/09/20 10:00:12;;;;;;;7.00;6.30;;;18.90;97.80;;;;;;5002004;28;20708;-68
2022/09/20 10:03:02;;;;;;;8.60;6.40;;;18.90;98.00;;;;;;5003841;28;20764;-68
2022/09/20 10:05:43;;;;;;;6.90;5.77;;;18.70;97.80;;;;;;5002663;28;20509;-68
2022/09/20 10:08:43;;;;;;;6.83;6.13;;;18.70;97.70;;;;;;5003468;28;20829;-68
2022/09/20 10:11:59;;;;;;;9.73;8.83;;;18.80;97.60;;;;;;5001714;28;20455;-68
2022/09/20 10:14:28;;;;;;;5.27;4.73;;;18.80;97.40;;;;;;4921317;29;20476;-71
2022/09/20 10:17:09;;;;;;;6.83;4.93;;;19.10;96.60;;;;;;4971213;28;20431;-68
2022/09/20 10:19:49;;;;;;;7.27;6.57;;;19.10;96.40;;;;;;5002603;28;20490;-68
2022/09/20 10:22:23;;;;;;;4.50;4.10;;;19.10;97.20;;;;;;5000575;28;20411;-68
2022/09/20 10:25:19;;;;;;;7.83;4.50;;;19.20;96.20;;;;;;4998063;28;20949;-68
2022/09/20 10:28:11;;;;;;;8.87;7.27;;;19.30;95.80;;;;;;5003359;28;20410;-69
2022/09/20 10:30:44;;;;;;;7.07;6.47;;;19.30;95.20;;;;;;5003999;28;20462;-68
2022/09/20 10:33:31;;;;;;;12.53;9.90;;;19.30;94.90;;;;;;5004594;28;20541;-68
2022/09/20 10:36:20;;;;;;;13.83;10.33;;;19.30;94.50;;;;;;5002220;28;20463;-68
2022/09/20 10:39:01;;;;;;;7.70;6.60;;;19.30;94.20;;;;;;4986979;28;20454;-68
2022/09/20 10:44:55;;;;;;;11.13;8.30;;;19.30;94.00;;;;;;5002045;28;20745;-68
2022/09/20 10:47:31;;;;;;;8.53;6.40;;;19.20;94.00;;;;;;5003017;28;20928;-68
2022/09/20 10:50:28;;;;;;;6.60;6.00;;;19.10;94.20;;;;;;5002475;28;20809;-68
2022/09/20 10:53:02;;;;;;;7.13;5.87;;;19.10;94.00;;;;;;5002411;28;20411;-68
2022/09/20 10:55:34;;;;;;;4.40;4.00;;;19.10;94.10;;;;;;5000958;28;20418;-68
2022/09/20 10:58:23;;;;;;;6.57;5.97;;;19.10;94.40;;;;;;5000505;28;20454;-68
2022/09/20 11:01:04;;;;;;;8.03;7.53;;;19.00;94.20;;;;;;5007085;28;20442;-68
2022/09/20 11:03:42;;;;;;;3.97;3.63;;;19.00;94.50;;;;;;5001422;28;20419;-68
2022/09/20 11:06:18;;;;;;;6.00;5.60;;;18.90;94.40;;;;;;5001466;28;20526;-68
2022/09/20 11:08:50;;;;;;;5.90;5.50;;;18.90;94.50;;;;;;5000544;28;20505;-69
2022/09/20 11:11:27;;;;;;;4.40;4.10;;;18.90;94.30;;;;;;5000472;28;20497;-68
2022/09/20 11:14:02;;;;;;;5.80;5.40;;;18.90;94.00;;;;;;5002099;28;20409;-68
2022/09/20 11:16:42;;;;;;;5.50;5.00;;;18.90;93.90;;;;;;5000664;28;20442;-68
2022/09/20 11:19:17;;;;;;;3.53;3.33;;;18.90;93.90;;;;;;5001251;28;20407;-68
2022/09/20 11:21:53;;;;;;;4.13;3.50;;;18.90;93.70;;;;;;5000174;28;20414;-68
2022/09/20 11:24:35;;;;;;;4.10;3.90;;;18.90;93.70;;;;;;5000289;28;20395;-68
2022/09/20 11:27:13;;;;;;;4.30;3.90;;;18.80;93.60;;;;;;5000299;28;20811;-67
2022/09/20 11:30:00;;;;;;;4.23;3.83;;;18.80;93.50;;;;;;4999634;28;20406;-68
2022/09/20 11:32:42;;;;;;;6.20;3.90;;;18.90;93.80;;;;;;5000493;28;20415;-75
2022/09/20 11:35:10;;;;;;;7.83;4.00;;;18.80;93.60;;;;;;4990243;28;20803;-68
2022/09/20 11:37:46;;;;;;;4.80;4.50;;;18.90;93.70;;;;;;5000705;28;20439;-68
2022/09/20 11:40:12;;;;;;;8.03;4.30;;;18.80;93.50;;;;;;4998833;28;20525;-68
2022/09/20 11:42:40;;;;;;;6.87;4.70;;;18.90;94.80;;;;;;4998592;28;20509;-68
2022/09/20 11:45:10;;;;;;;27.50;20.27;;;18.80;97.00;;;;;;5008601;28;20830;-68
2022/09/20 11:47:42;;;;;;;95.17;67.93;;;18.90;96.00;;;;;;5003944;28;20426;-68
2022/09/20 11:50:44;;;;;;;16.53;14.30;;;19.00;95.60;;;;;;5005182;28;20454;-68
2022/09/20 11:53:12;;;;;;;11.67;8.43;;;18.90;95.60;;;;;;5005198;28;20426;-68
2022/09/20 11:56:21;;;;;;;9.30;7.17;;;18.80;95.80;;;;;;4998340;28;20430;-68
2022/09/20 11:58:49;;;;;;;7.20;5.57;;;18.90;95.50;;;;;;4914977;29;20761;-68
2022/09/20 12:01:28;;;;;;;6.60;6.00;;;18.80;95.90;;;;;;4992319;28;20418;-68
2022/09/20 12:04:21;;;;;;;4.47;4.17;;;18.90;95.70;;;;;;5003633;28;20443;-68
2022/09/20 12:07:03;;;;;;;4.83;4.40;;;18.90;95.20;;;;;;5003691;28;20834;-70
2022/09/20 12:09:36;;;;;;;5.63;4.00;;;18.80;95.80;;;;;;5004644;28;20919;-68
2022/09/20 12:12:13;;;;;;;7.67;4.10;;;18.80;95.40;;;;;;5004558;28;20526;-68
2022/09/20 12:14:41;;;;;;;6.03;4.07;;;18.70;95.30;;;;;;5005397;28;20831;-68
2022/09/20 12:18:01;;;;;;;4.50;4.13;;;18.80;95.30;;;;;;5003754;28;20410;-68
2022/09/20 12:20:41;;;;;;;4.33;3.60;;;18.80;95.20;;;;;;4951927;29;20444;-75
2022/09/20 12:23:41;;;;;;;4.77;4.30;;;18.70;95.20;;;;;;4998328;28;21000;-68
2022/09/20 12:26:09;;;;;;;4.77;4.27;;;18.70;95.00;;;;;;5004587;28;20469;-68
2022/09/20 12:28:37;;;;;;;5.10;4.60;;;18.70;94.60;;;;;;5002816;28;20406;-68
2022/09/20 12:31:36;;;;;;;5.30;4.80;;;18.70;94.40;;;;;;5003869;28;20497;-67
2022/09/20 12:34:02;;;;;;;4.33;3.93;;;18.80;94.10;;;;;;5005693;28;20486;-68
2022/09/20 12:36:33;;;;;;;3.70;3.30;;;18.80;93.90;;;;;;5004276;28;20537;-70
2022/09/20 12:39:15;;;;;;;4.53;4.10;;;18.80;93.80;;;;;;5005776;28;20176;-68
2022/09/20 12:41:49;;;;;;;4.20;3.20;;;18.80;93.60;;;;;;5005300;28;20426;-68
2022/09/20 12:44:27;;;;;;;3.20;3.00;;;18.90;94.10;;;;;;5005393;28;20415;-68
2022/09/20 12:46:55;;;;;;;4.40;3.60;;;19.00;94.00;;;;;;5002795;28;20422;-68
2022/09/20 12:55:30;;;;;;;4.03;3.63;;;19.10;92.90;;;;;;5005450;28;20411;-68
2022/09/20 12:58:06;;;;;;;3.93;3.53;;;19.10;92.80;;;;;;5002826;28;20422;-68
2022/09/20 13:00:41;;;;;;;4.20;3.80;;;19.10;92.60;;;;;;5001983;28;20422;-68
2022/09/20 13:03:30;;;;;;;4.17;3.77;;;19.00;92.70;;;;;;5002871;28;20874;-67
2022/09/20 13:06:11;;;;;;;5.67;2.90;;;19.10;92.50;;;;;;5002057;28;20422;-68
2022/09/20 13:09:04;;;;;;;3.60;3.30;;;19.20;94.20;;;;;;4952003;29;20425;-69
2022/09/20 13:12:00;;;;;;;3.70;3.40;;;19.20;93.10;;;;;;4951200;29;20553;-69
2022/09/20 13:14:31;;;;;;;3.37;3.10;;;19.10;92.80;;;;;;4952531;29;20913;-68
2022/09/20 13:17:01;;;;;;;3.30;3.10;;;19.00;92.70;;;;;;4949995;29;20504;-69
2022/09/20 13:19:36;;;;;;;49.40;34.07;;;19.00;93.00;;;;;;4953422;29;20813;-68
2022/09/20 13:22:30;;;;;;;8.43;7.30;;;18.90;93.20;;;;;;4952479;29;20448;-68
2022/09/20 13:25:01;;;;;;;11.77;6.83;;;18.90;93.10;;;;;;4918089;29;20465;-68
2022/09/20 13:27:34;;;;;;;5.93;4.10;;;19.00;94.80;;;;;;4952309;29;20417;-68
2022/09/20 13:30:17;;;;;;;4.67;4.20;;;19.00;95.70;;;;;;4952048;29;20464;-68
2022/09/20 13:32:43;;;;;;;5.03;4.53;;;19.00;95.60;;;;;;4949496;29;20437;-68
2022/09/20 13:35:09;;;;;;;6.80;4.90;;;19.10;95.00;;;;;;4951681;29;20445;-69
2022/09/20 13:37:44;;;;;;;4.07;3.77;;;19.10;95.60;;;;;;4951486;29;20704;-68
2022/09/20 13:40:41;;;;;;;5.27;3.83;;;19.10;94.30;;;;;;4988398;28;20200;-68
2022/09/20 13:43:20;;;;;;;4.10;3.37;;;19.00;93.50;;;;;;5002747;28;20764;-68
2022/09/20 13:45:49;;;;;;;4.40;3.43;;;19.00;93.10;;;;;;5003975;28;20509;-68
2022/09/20 13:48:15;;;;;;;6.10;3.60;;;19.00;92.60;;;;;;5001396;28;20423;-68
2022/09/20 13:50:41;;;;;;;3.80;3.43;;;18.90;92.10;;;;;;5002679;28;20486;-68
2022/09/20 13:53:15;;;;;;;3.77;3.30;;;18.90;91.90;;;;;;5002793;28;20438;-68
2022/09/20 13:55:42;;;;;;;3.90;3.60;;;18.90;91.60;;;;;;5002777;28;20179;-68